地図

経路データ

SID SEASON NUMBER BASIN SUBBASIN NAME ISO_TIME NATURE LAT LON WMO_WIND WMO_PRES WMO_AGENCY TRACK_TYPE DIST2LAND LANDFALL IFLAG USA_AGENCY USA_ATCF_ID USA_LAT USA_LON USA_RECORD USA_STATUS USA_WIND USA_PRES USA_SSHS USA_R34_NE USA_R34_SE USA_R34_SW USA_R34_NW USA_R50_NE USA_R50_SE USA_R50_SW USA_R50_NW USA_R64_NE USA_R64_SE USA_R64_SW USA_R64_NW USA_POCI USA_ROCI USA_RMW USA_EYE TOKYO_LAT TOKYO_LON TOKYO_GRADE TOKYO_WIND TOKYO_PRES TOKYO_R50_DIR TOKYO_R50_LONG TOKYO_R50_SHORT TOKYO_R30_DIR TOKYO_R30_LONG TOKYO_R30_SHORT TOKYO_LAND CMA_LAT CMA_LON CMA_CAT CMA_WIND CMA_PRES HKO_LAT HKO_LON HKO_CAT HKO_WIND HKO_PRES NEWDELHI_LAT NEWDELHI_LON NEWDELHI_GRADE NEWDELHI_WIND NEWDELHI_PRES NEWDELHI_CI NEWDELHI_DP NEWDELHI_POCI REUNION_LAT REUNION_LON REUNION_TYPE REUNION_WIND REUNION_PRES REUNION_TNUM REUNION_CI REUNION_RMW REUNION_R34_NE REUNION_R34_SE REUNION_R34_SW REUNION_R34_NW REUNION_R50_NE REUNION_R50_SE REUNION_R50_SW REUNION_R50_NW REUNION_R64_NE REUNION_R64_SE REUNION_R64_SW REUNION_R64_NW BOM_LAT BOM_LON BOM_TYPE BOM_WIND BOM_PRES BOM_TNUM BOM_CI BOM_RMW BOM_R34_NE BOM_R34_SE BOM_R34_SW BOM_R34_NW BOM_R50_NE BOM_R50_SE BOM_R50_SW BOM_R50_NW BOM_R64_NE BOM_R64_SE BOM_R64_SW BOM_R64_NW BOM_ROCI BOM_POCI BOM_EYE BOM_POS_METHOD BOM_PRES_METHOD NADI_LAT NADI_LON NADI_CAT NADI_WIND NADI_PRES WELLINGTON_LAT WELLINGTON_LON WELLINGTON_WIND WELLINGTON_PRES DS824_LAT DS824_LON DS824_STAGE DS824_WIND DS824_PRES TD9636_LAT TD9636_LON TD9636_STAGE TD9636_WIND TD9636_PRES TD9635_LAT TD9635_LON TD9635_WIND TD9635_PRES TD9635_ROCI NEUMANN_LAT NEUMANN_LON NEUMANN_CLASS NEUMANN_WIND NEUMANN_PRES MLC_LAT MLC_LON MLC_CLASS MLC_WIND MLC_PRES USA_GUST BOM_GUST BOM_GUST_PER REUNION_GUST REUNION_GUST_PER USA_SEAHGT USA_SEARAD_NE USA_SEARAD_SE USA_SEARAD_SW USA_SEARAD_NW STORM_SPEED STORM_DIR
1944084S12156 1944 24 SP EA NOT_NAMED 1944-03-23 23:00:00 NR -12.3000 156.100 main 454 454 __________O___ -1 -12.3000 156.100 7 10 232
1944084S12156 1944 24 SP EA NOT_NAMED 1944-03-24 00:00:00 NR -12.4024 155.969 main 468 468 __________P___ -1 -12.4024 155.969 7 10 231
1944084S12156 1944 24 SP EA NOT_NAMED 1944-03-24 03:00:00 NR -12.7120 155.573 main 518 518 __________P___ -1 -12.7120 155.573 7 10 231
1944084S12156 1944 24 SP EA NOT_NAMED 1944-03-24 06:00:00 NR -13.0304 155.174 main 558 539 __________P___ -1 -13.0304 155.174 7 10 230
1944084S12156 1944 24 SP EA NOT_NAMED 1944-03-24 09:00:00 NR -13.3648 154.772 main 545 532 __________P___ -1 -13.3648 154.772 7 10 229
1944084S12156 1944 24 SP EA NOT_NAMED 1944-03-24 11:00:00 NR -13.6000 154.500 main 532 531 __________O___ -1 -13.6000 154.500 7 11 228
1944084S12156 1944 24 SP EA NOT_NAMED 1944-03-24 12:00:00 NR -13.7219 154.363 main 531 522 __________P___ -1 -13.7219 154.363 7 11 227
1944084S12156 1944 24 SP EA NOT_NAMED 1944-03-24 15:00:00 NR -14.0968 153.954 main 531 523 __________P___ -1 -14.0968 153.954 7 11 226
1944084S12156 1944 24 SP EA NOT_NAMED 1944-03-24 18:00:00 NR -14.4659 153.563 main 538 532 __________P___ -1 -14.4659 153.563 7 10 226
1944084S12156 1944 24 SP EA NOT_NAMED 1944-03-24 21:00:00 NR -14.8041 153.208 main 542 542 __________P___ -1 -14.8041 153.208 7 9 226
1944084S12156 1944 24 SP EA NOT_NAMED 1944-03-24 23:00:00 NR -15.0000 153.000 997 bom main 552 552 ______O___O___ -1 -15.0000 153.000 997 -15.0000 153.000 7 8 226
1944084S12156 1944 24 SP EA NOT_NAMED 1944-03-25 00:00:00 TS -15.0743 152.916 main 557 552 ______P__OP___ -1 -15.0443 152.940 -15.1000 152.900 TC 35 997 -15.0829 152.908 7 6 229
1944084S12156 1944 24 SP EA NOT_NAMED 1944-03-25 03:00:00 TS -15.2427 152.713 main 558 558 ______P__PP___ -1 -15.1778 152.762 -15.2381 152.721 TC -15.2937 152.672 7 5 230
1944084S12156 1944 24 SP EA NOT_NAMED 1944-03-25 06:00:00 TS -15.3849 152.534 main 571 571 ______P__PP___ -1 -15.3133 152.583 -15.3772 152.541 TC -15.4622 152.478 7 4 230
1944084S12156 1944 24 SP EA NOT_NAMED 1944-03-25 09:00:00 TS -15.5261 152.359 main 578 575 ______P__PP___ -1 -15.4525 152.406 -15.5185 152.363 TC -15.6072 152.309 7 4 230
1944084S12156 1944 24 SP EA NOT_NAMED 1944-03-25 11:00:00 TS -15.6209 152.244 main 582 582 ______P__PO___ -1 -15.5482 152.288 -15.6145 152.245 TC -15.7000 152.200 7 4 229
1944084S12156 1944 24 SP EA NOT_NAMED 1944-03-25 12:00:00 TS -15.6708 152.184 main 592 589 ______P__PP___ -1 -15.5971 152.229 -15.6632 152.186 TC -15.7521 152.137 7 5 229
1944084S12156 1944 24 SP EA NOT_NAMED 1944-03-25 15:00:00 TS -15.8212 152.006 main 596 576 ______P__PP___ -1 -15.7487 152.055 -15.8126 152.010 TC -15.9024 151.953 7 5 228
1944084S12156 1944 24 SP EA NOT_NAMED 1944-03-25 18:00:00 TS -15.9751 151.832 main 576 560 ______P__PP___ -1 -15.9090 151.882 -15.9677 151.837 TC -16.0486 151.777 7 5 226
1944084S12156 1944 24 SP EA NOT_NAMED 1944-03-25 21:00:00 TS -16.1354 151.662 main 560 545 ______P__PP___ -1 -16.0797 151.712 -16.1297 151.667 TC -16.1969 151.608 7 5 224
1944084S12156 1944 24 SP EA NOT_NAMED 1944-03-25 23:00:00 TS -16.2474 151.552 993 bom main 545 530 ______O__PO___ -1 -16.2000 151.600 993 -16.2423 151.555 TC -16.3000 151.500 7 5 223
1944084S12156 1944 24 SP EA NOT_NAMED 1944-03-26 00:00:00 TS -16.3062 151.497 main 530 500 ______P__OP___ -1 -16.2623 151.545 -16.3000 151.500 TC 40 993 -16.3562 151.448 7 5 220
1944084S12156 1944 24 SP EA NOT_NAMED 1944-03-26 03:00:00 TS -16.4888 151.338 main 500 475 ______P__PP___ -1 -16.4566 151.380 -16.4790 151.336 TC -16.5308 151.297 7 5 219
1944084S12156 1944 24 SP EA NOT_NAMED 1944-03-26 06:00:00 TS -16.6781 151.180 main 475 445 ______P__PP___ -1 -16.6595 151.215 -16.6651 151.174 TC -16.7096 151.151 7 5 219
1944084S12156 1944 24 SP EA NOT_NAMED 1944-03-26 09:00:00 TS -16.8699 151.021 main 445 430 ______P__PP___ -1 -16.8673 151.050 -16.8560 151.011 TC -16.8864 151.003 7 5 219
1944084S12156 1944 24 SP EA NOT_NAMED 1944-03-26 11:00:00 TS -16.9972 150.913 main 430 430 ______P__PO___ -1 -17.0068 150.937 -16.9847 150.900 TC -17.0000 150.900 7 5 220
1944084S12156 1944 24 SP EA NOT_NAMED 1944-03-26 12:00:00 TS -17.0593 150.858 main 420 400 ______P__PP___ -1 -17.0765 150.880 -17.0492 150.844 TC -17.0521 150.849 7 5 221
1944084S12156 1944 24 SP EA NOT_NAMED 1944-03-26 15:00:00 TS -17.2429 150.690 main 400 370 ______P__PP___ -1 -17.2838 150.706 -17.2426 150.672 TC -17.2023 150.691 7 5 222
1944084S12156 1944 24 SP EA NOT_NAMED 1944-03-26 18:00:00 TS -17.4226 150.513 main 370 340 ______P__PP___ -1 -17.4856 150.524 -17.4338 150.493 TC -17.3485 150.522 7 5 225
1944084S12156 1944 24 SP EA NOT_NAMED 1944-03-26 21:00:00 TS -17.5985 150.324 main 340 325 ______P__PP___ -1 -17.6783 150.333 -17.6203 150.303 TC -17.4968 150.336 7 5 227
1944084S12156 1944 24 SP EA NOT_NAMED 1944-03-26 23:00:00 TS -17.7137 150.190 993 bom main 325 310 ______O__PO___ -1 -17.8000 150.200 993 4 -17.7410 150.169 TC -17.6000 150.200 7 5 227
1944084S12156 1944 24 SP EA NOT_NAMED 1944-03-27 00:00:00 TS -17.7672 150.132 main 310 295 ______P__OP___ -1 -17.8455 150.168 -17.8000 150.100 TC 40 993 -17.6562 150.127 7 5 227
1944084S12156 1944 24 SP EA NOT_NAMED 1944-03-27 03:00:00 TS -17.9240 149.952 main 295 264 ______P__PP___ -1 -17.9701 150.083 -17.9710 149.883 TC -17.8309 149.890 7 5 229
1944084S12156 1944 24 SP EA NOT_NAMED 1944-03-27 06:00:00 TS -18.0756 149.761 main 264 243 ______P__PP___ -1 -18.0833 149.994 -18.1337 149.653 TC -18.0097 149.637 7 5 232
1944084S12156 1944 24 SP EA NOT_NAMED 1944-03-27 09:00:00 TS -18.2231 149.555 main 243 222 ______P__PP___ -1 -18.1934 149.880 -18.2894 149.412 TC -18.1864 149.375 7 5 234
1944084S12156 1944 24 SP EA NOT_NAMED 1944-03-27 11:00:00 TS -18.3196 149.408 main 222 207 ______P__PO___ -1 -18.2691 149.777 -18.3898 149.246 TC -18.3000 149.200 7 5 235
1944084S12156 1944 24 SP EA NOT_NAMED 1944-03-27 12:00:00 TS -18.3660 149.338 main 207 187 ______P__PP___ -1 -18.3085 149.715 -18.4391 149.161 TC -18.3505 149.139 7 5 236
1944084S12156 1944 24 SP EA NOT_NAMED 1944-03-27 15:00:00 TS -18.5053 149.114 main 187 168 ______P__PP___ -1 -18.4365 149.477 -18.5839 148.903 TC -18.4956 148.963 7 5 239
1944084S12156 1944 24 SP EA NOT_NAMED 1944-03-27 18:00:00 TS -18.6497 148.846 main 165 131 ______P__PP___ -1 -18.5853 149.142 -18.7249 148.639 TC -18.6388 148.759 7 6 242
1944084S12156 1944 24 SP EA NOT_NAMED 1944-03-27 21:00:00 TS -18.8000 148.520 main 131 107 ______P__PP___ -1 -18.7626 148.684 -18.8632 148.371 TC -18.7900 148.469 7 8 246
1944084S12156 1944 24 SP EA NOT_NAMED 1944-03-27 23:00:00 TS -18.9109 148.238 994 bom main 99 84 ______O__PO___ -1 -18.9000 148.300 994 -18.9545 148.190 TC -18.9000 148.200 7 9 248
1944084S12156 1944 24 SP EA NOT_NAMED 1944-03-28 00:00:00 TS -18.9735 148.061 main 84 22 ______P__OP___ -1 -18.9778 148.079 -19.0000 148.100 TC 40 994 -18.9626 148.033 7 13 251
1944084S12156 1944 24 SP EA NOT_NAMED 1944-03-28 03:00:00 NR -19.1912 147.394 main 22 22 ______P___P___ -1 -19.2203 147.352 TC -19.1622 147.436 7 13 251
1944084S12156 1944 24 SP EA NOT_NAMED 1944-03-28 04:00:00 NR -19.2606 147.163 bom main 20 0 ______O___P___ -1 -19.3000 147.100 TC -19.2311 147.210 7 14 253
1944084S12156 1944 24 SP EA NOT_NAMED 1944-03-28 06:00:00 NR -19.3974 146.684 main 0 0 ______P___P___ -1 -19.4529 146.599 TC -19.3697 146.726 7 14 254
1944084S12156 1944 24 SP EA NOT_NAMED 1944-03-28 08:00:00 NR -19.5250 146.187 bom main 0 0 ______O___P___ -1 -19.6000 146.100 TC -19.5063 146.209 7 14 256
1944084S12156 1944 24 SP EA NOT_NAMED 1944-03-28 09:00:00 NR -19.5728 145.942 main 0 0 __________P___ -1 TC -19.5728 145.942 7 15 257
1944084S12156 1944 24 SP EA NOT_NAMED 1944-03-28 11:00:00 NR -19.7000 145.400 main 0 0 __________O___ -1 TC -19.7000 145.400 7 16 256
1944084S12156 1944 24 SP EA NOT_NAMED 1944-03-28 12:00:00 NR -19.7600 145.127 main 0 0 __________P___ -1 TC -19.7600 145.127 7 16 258
1944084S12156 1944 24 SP EA NOT_NAMED 1944-03-28 15:00:00 NR -19.9262 144.305 main 0 0 __________P___ -1 TC -19.9262 144.305 7 16 258
1944084S12156 1944 24 SP EA NOT_NAMED 1944-03-28 18:00:00 NR -20.0755 143.480 main 0 0 __________P___ -1 TC -20.0755 143.480 7 16 260
1944084S12156 1944 24 SP EA NOT_NAMED 1944-03-28 21:00:00 NR -20.2128 142.653 main 0 0 __________P___ -1 TC -20.2128 142.653 7 16 260
1944084S12156 1944 24 SP EA NOT_NAMED 1944-03-28 23:00:00 NR -20.3000 142.100 main 0 __________O___ -1 TC -20.3000 142.100 7 16 260

デジタル台風データ・検索

IBTrACS Databaseについて

本データベースは、米国NOAAが公開する1842年以降の世界の熱帯低気圧のベストトラックデータアーカイブInternational Best Track Archive for Climate Stewardship (IBTrACS)を、ウェブで閲覧しやすい形式に変換したものです。

最終更新日:2021-10-21